createdAt,value
2018-03-22T00:00:13.176Z,6.31
2018-03-22T00:02:45.790Z,6.34
2018-03-22T00:05:18.357Z,6.42
2018-03-22T00:07:50.950Z,6.30
2018-03-22T00:10:23.510Z,6.26
2018-03-22T00:12:56.080Z,6.02
2018-03-22T00:15:28.661Z,6.19
2018-03-22T00:18:01.228Z,6.27
2018-03-22T00:20:33.773Z,6.13
2018-03-22T00:23:06.344Z,5.99
2018-03-22T00:25:38.900Z,6.21
2018-03-22T00:28:11.489Z,6.16
2018-03-22T00:30:44.051Z,6.24
2018-03-22T00:33:16.614Z,6.23
2018-03-22T00:35:49.196Z,6.15
2018-03-22T00:38:21.766Z,6.08
2018-03-22T00:40:54.316Z,6.23
2018-03-22T00:43:26.876Z,6.31
2018-03-22T00:45:59.435Z,6.31
2018-03-22T00:48:32.002Z,6.33
2018-03-22T00:51:04.622Z,6.11
2018-03-22T00:53:37.192Z,6.29
2018-03-22T00:56:09.920Z,6.30
2018-03-22T00:58:42.492Z,6.31
2018-03-22T01:01:15.060Z,6.17
2018-03-22T01:03:47.628Z,6.19
2018-03-22T01:06:20.168Z,6.16
2018-03-22T01:08:52.803Z,6.24
2018-03-22T01:11:25.358Z,6.15
2018-03-22T01:13:57.944Z,6.21
2018-03-22T01:16:30.519Z,6.10
2018-03-22T01:19:03.093Z,5.93
2018-03-22T01:21:35.643Z,5.98
2018-03-22T01:24:08.206Z,6.27
2018-03-22T01:26:40.757Z,6.28
2018-03-22T01:29:13.344Z,6.14
2018-03-22T01:31:45.881Z,6.01
2018-03-22T01:34:18.461Z,6.17
2018-03-22T01:36:51.008Z,6.30
2018-03-22T01:39:23.583Z,6.26
2018-03-22T01:41:56.130Z,6.06
2018-03-22T01:44:28.756Z,6.22
2018-03-22T01:47:01.322Z,6.15
2018-03-22T01:49:33.887Z,6.15
2018-03-22T01:52:06.440Z,6.40
2018-03-22T01:54:39.012Z,6.09
2018-03-22T01:57:11.568Z,6.15
2018-03-22T01:59:44.149Z,6.24
2018-03-22T02:02:16.680Z,6.12
2018-03-22T02:04:49.245Z,6.10
2018-03-22T02:07:21.785Z,6.04
2018-03-22T02:09:54.381Z,6.26
2018-03-22T02:12:26.924Z,6.03
2018-03-22T02:14:59.498Z,6.01
2018-03-22T02:17:32.022Z,6.19
2018-03-22T02:20:04.575Z,6.27
2018-03-22T02:22:37.111Z,6.26
2018-03-22T02:25:09.719Z,6.19
2018-03-22T02:27:42.308Z,5.97
2018-03-22T02:30:14.889Z,5.96
2018-03-22T02:32:47.428Z,6.13
2018-03-22T02:35:20.000Z,5.88
2018-03-22T02:37:52.553Z,5.90
2018-03-22T02:40:25.130Z,5.82
2018-03-22T02:42:57.672Z,5.19
2018-03-22T02:45:30.258Z,5.45
2018-03-22T02:48:02.823Z,5.53
2018-03-22T02:50:35.414Z,5.56
2018-03-22T02:53:07.969Z,5.34
2018-03-22T02:55:40.543Z,5.30
2018-03-22T02:58:13.089Z,5.34
2018-03-22T03:00:45.656Z,5.21
2018-03-22T03:03:18.200Z,5.19
2018-03-22T03:05:50.778Z,5.41
2018-03-22T03:08:23.374Z,5.40
2018-03-22T03:10:55.968Z,5.27
2018-03-22T03:13:28.523Z,5.24
2018-03-22T03:16:01.091Z,5.06
2018-03-22T03:18:33.689Z,5.32
2018-03-22T03:21:06.261Z,5.32
2018-03-22T03:23:38.831Z,5.18
2018-03-22T03:26:11.401Z,4.85
2018-03-22T03:28:43.996Z,5.12
2018-03-22T03:31:16.568Z,4.91
2018-03-22T03:33:49.146Z,5.12
2018-03-22T03:36:21.696Z,5.15
2018-03-22T03:38:54.283Z,5.28
2018-03-22T03:41:26.923Z,5.39
2018-03-22T03:43:59.467Z,5.32
2018-03-22T03:46:32.019Z,5.35
2018-03-22T03:51:41.724Z,5.35
2018-03-22T03:54:14.305Z,5.27
2018-03-22T03:56:46.966Z,5.09
2018-03-22T03:59:19.494Z,5.03
2018-03-22T04:01:51.974Z,5.14
2018-03-22T04:04:24.498Z,5.19
2018-03-22T04:06:56.975Z,4.78
2018-03-22T04:09:29.476Z,4.98
2018-03-22T04:12:01.955Z,4.85
2018-03-22T04:14:34.458Z,4.90
2018-03-22T04:17:06.999Z,5.00
2018-03-22T04:19:39.726Z,5.02
2018-03-22T04:22:12.491Z,4.95
2018-03-22T04:24:45.071Z,5.02
2018-03-22T04:27:17.644Z,5.03
2018-03-22T04:29:50.162Z,4.71
2018-03-22T04:32:22.654Z,4.54
2018-03-22T04:34:55.178Z,4.67
2018-03-22T04:37:27.652Z,4.80
2018-03-22T04:40:00.155Z,4.82
2018-03-22T04:42:32.636Z,4.73
2018-03-22T04:45:05.138Z,4.77
2018-03-22T04:47:37.656Z,4.69
2018-03-22T04:50:10.440Z,4.70
2018-03-22T04:52:43.041Z,4.57
2018-03-22T04:55:15.577Z,4.51
2018-03-22T04:57:48.083Z,4.52
2018-03-22T05:00:20.669Z,4.63
2018-03-22T05:02:53.169Z,4.66
2018-03-22T05:05:25.673Z,4.10
2018-03-22T05:07:58.158Z,4.58
2018-03-22T05:10:30.646Z,4.46
2018-03-22T05:13:03.126Z,4.48
2018-03-22T05:15:40.353Z,4.51
2018-03-22T05:18:12.871Z,4.30
2018-03-22T05:20:45.379Z,4.43
2018-03-22T05:23:17.870Z,4.38
2018-03-22T05:25:50.366Z,4.08
2018-03-22T05:28:22.892Z,4.47
2018-03-22T05:30:55.396Z,4.61
2018-03-22T05:33:27.884Z,4.67
2018-03-22T05:36:00.379Z,4.90
2018-03-22T05:38:32.858Z,4.75
2018-03-22T05:41:05.359Z,4.69
2018-03-22T05:43:37.870Z,4.67
2018-03-22T05:46:10.612Z,4.62
2018-03-22T05:48:43.135Z,4.76
2018-03-22T05:51:15.670Z,4.61
2018-03-22T05:53:48.180Z,4.57
2018-03-22T05:56:20.682Z,4.74
2018-03-22T05:58:53.164Z,4.84
2018-03-22T06:01:25.662Z,4.75
2018-03-22T06:03:58.150Z,4.87
2018-03-22T06:06:30.643Z,4.89
2018-03-22T06:09:03.119Z,4.97
2018-03-22T06:11:35.622Z,4.98
2018-03-22T06:14:08.175Z,5.03
2018-03-22T06:16:40.706Z,5.05
2018-03-22T06:19:13.257Z,5.20
2018-03-22T06:21:45.799Z,4.98
2018-03-22T06:24:18.294Z,5.04
2018-03-22T06:26:50.802Z,5.15
2018-03-22T06:29:23.289Z,4.78
2018-03-22T06:31:55.798Z,5.17
2018-03-22T06:34:28.271Z,5.30
2018-03-22T06:37:00.779Z,5.29
2018-03-22T06:39:33.251Z,5.46
2018-03-22T06:42:05.754Z,5.48
2018-03-22T06:44:38.474Z,5.32
2018-03-22T06:47:11.215Z,5.35
2018-03-22T06:49:43.761Z,5.43
2018-03-22T06:52:16.303Z,5.39
2018-03-22T06:54:48.826Z,5.55
2018-03-22T06:57:21.367Z,5.69
2018-03-22T06:59:53.867Z,5.73
2018-03-22T07:02:26.368Z,5.30
2018-03-22T07:04:58.866Z,5.67
2018-03-22T07:07:31.350Z,5.58
2018-03-22T07:10:03.855Z,5.53
2018-03-22T07:12:36.336Z,5.75
2018-03-22T07:15:09.543Z,5.47
2018-03-22T07:17:42.094Z,5.73
2018-03-22T07:20:14.658Z,5.74
2018-03-22T07:22:47.211Z,5.92
2018-03-22T07:25:19.748Z,5.81
2018-03-22T07:27:52.242Z,6.02
2018-03-22T07:30:24.746Z,6.15
2018-03-22T07:32:57.222Z,6.29
2018-03-22T07:35:29.722Z,6.38
2018-03-22T07:38:02.199Z,6.28
2018-03-22T07:40:34.784Z,6.40
2018-03-22T07:43:12.860Z,6.71
2018-03-22T07:45:45.433Z,6.73
2018-03-22T07:48:17.950Z,6.89
2018-03-22T07:50:50.485Z,6.62
2018-03-22T07:53:22.970Z,6.52
2018-03-22T07:55:55.467Z,6.44
2018-03-22T07:58:27.945Z,6.56
2018-03-22T08:01:00.443Z,6.67
2018-03-22T08:03:32.921Z,6.58
2018-03-22T08:06:05.418Z,6.70
2018-03-22T08:08:37.973Z,6.79
2018-03-22T08:11:10.674Z,6.81
2018-03-22T08:13:45.332Z,6.73
2018-03-22T08:16:20.004Z,6.85
2018-03-22T08:18:52.492Z,6.69
2018-03-22T08:21:24.986Z,6.63
2018-03-22T08:23:57.461Z,6.70
2018-03-22T08:26:29.968Z,6.67
2018-03-22T08:29:02.453Z,6.60
2018-03-22T08:31:34.953Z,6.63
2018-03-22T08:34:07.859Z,6.72
2018-03-22T08:36:40.450Z,6.81
2018-03-22T08:39:13.011Z,6.80
2018-03-22T08:41:45.572Z,6.89
2018-03-22T08:44:18.091Z,6.69
2018-03-22T08:46:50.590Z,6.93
2018-03-22T08:49:23.062Z,6.98
2018-03-22T08:51:55.563Z,6.65
2018-03-22T08:54:28.042Z,6.66
2018-03-22T08:57:00.539Z,6.73
2018-03-22T08:59:33.014Z,6.82
2018-03-22T09:02:05.510Z,6.91
2018-03-22T09:04:38.023Z,7.00
2018-03-22T09:07:10.680Z,7.10
2018-03-22T09:09:43.317Z,7.30
2018-03-22T09:12:15.954Z,7.28
2018-03-22T09:14:48.453Z,7.31
2018-03-22T09:17:20.960Z,7.23
2018-03-22T09:19:53.434Z,7.18
2018-03-22T09:22:25.948Z,7.33
2018-03-22T09:24:58.430Z,7.09
2018-03-22T09:27:30.934Z,7.03
2018-03-22T09:30:03.411Z,7.10
2018-03-22T09:32:35.910Z,7.15
2018-03-22T09:35:08.835Z,7.27
2018-03-22T09:37:41.461Z,7.27
2018-03-22T09:40:14.030Z,7.48
2018-03-22T09:42:46.602Z,7.37
2018-03-22T09:45:19.143Z,7.29
2018-03-22T09:47:51.638Z,7.11
2018-03-22T09:50:24.119Z,7.28
2018-03-22T09:52:56.615Z,7.47
2018-03-22T09:55:29.106Z,7.49
2018-03-22T09:58:01.607Z,7.52
2018-03-22T10:00:34.092Z,7.48
2018-03-22T10:03:06.609Z,7.29
2018-03-22T10:05:39.235Z,7.29
2018-03-22T10:08:11.867Z,7.56
2018-03-22T10:10:44.377Z,7.49
2018-03-22T10:13:16.904Z,7.67
2018-03-22T10:15:49.402Z,7.78
2018-03-22T10:18:21.899Z,7.55
2018-03-22T10:20:54.378Z,7.73
2018-03-22T10:23:26.875Z,7.77
2018-03-22T10:25:59.378Z,7.79
2018-03-22T10:28:31.858Z,7.91
2018-03-22T10:31:04.359Z,8.00
2018-03-22T10:33:36.855Z,8.12
2018-03-22T10:36:09.433Z,8.17
2018-03-22T10:38:42.110Z,8.13
2018-03-22T10:41:14.666Z,8.08
2018-03-22T10:43:47.172Z,8.15
2018-03-22T10:46:19.699Z,8.20
2018-03-22T10:48:52.186Z,8.23
2018-03-22T10:51:24.686Z,8.30
2018-03-22T10:53:57.228Z,8.26
2018-03-22T10:56:29.682Z,8.49
2018-03-22T10:59:02.157Z,8.59
2018-03-22T11:01:40.423Z,8.83
2018-03-22T11:04:12.943Z,8.72
2018-03-22T11:06:45.444Z,8.85
2018-03-22T11:09:17.979Z,9.05
2018-03-22T11:11:50.475Z,8.95
2018-03-22T11:14:22.959Z,9.11
2018-03-22T11:16:55.464Z,8.99
2018-03-22T11:19:27.942Z,9.21
2018-03-22T11:22:00.438Z,9.26
2018-03-22T11:24:32.915Z,9.05
2018-03-22T11:27:05.420Z,9.12
2018-03-22T11:29:37.948Z,8.95
2018-03-22T11:32:10.747Z,8.90
2018-03-22T11:34:43.284Z,9.28
2018-03-22T11:37:15.877Z,9.33
2018-03-22T11:39:48.367Z,9.38
2018-03-22T11:42:20.875Z,9.47
2018-03-22T11:44:53.354Z,9.46
2018-03-22T11:47:25.846Z,9.59
2018-03-22T11:49:58.327Z,9.43
2018-03-22T11:52:30.826Z,9.44
2018-03-22T11:55:03.312Z,9.65
2018-03-22T11:57:35.810Z,9.70
2018-03-22T12:00:08.330Z,9.69
2018-03-22T12:02:40.954Z,9.84
2018-03-22T12:05:13.508Z,9.93
2018-03-22T12:07:46.062Z,9.98
2018-03-22T12:10:18.547Z,9.97
2018-03-22T12:12:51.046Z,9.86
2018-03-22T12:15:23.527Z,9.89
2018-03-22T12:17:56.035Z,10.13
2018-03-22T12:20:28.516Z,9.89
2018-03-22T12:23:01.019Z,10.07
2018-03-22T12:25:33.493Z,10.14
2018-03-22T12:28:05.994Z,10.18
2018-03-22T12:30:38.525Z,10.25
2018-03-22T12:33:11.064Z,10.23
2018-03-22T12:35:43.631Z,10.26
2018-03-22T12:38:16.167Z,10.28
2018-03-22T12:40:48.662Z,10.31
2018-03-22T12:43:21.233Z,10.03
2018-03-22T12:45:53.670Z,10.25
2018-03-22T12:48:26.174Z,10.32
2018-03-22T12:50:58.655Z,10.32
2018-03-22T12:53:31.158Z,10.33
2018-03-22T12:56:03.632Z,10.44
2018-03-22T12:58:36.134Z,10.56
2018-03-22T13:01:08.782Z,10.57
2018-03-22T13:03:41.510Z,10.68
2018-03-22T13:06:14.049Z,10.58
2018-03-22T13:08:46.646Z,10.48
2018-03-22T13:11:19.132Z,10.43
2018-03-22T13:13:51.630Z,10.61
2018-03-22T13:16:24.102Z,10.43
2018-03-22T13:18:56.602Z,10.39
2018-03-22T13:21:29.083Z,10.39
2018-03-22T13:24:01.584Z,10.44
2018-03-22T13:26:34.075Z,10.36
2018-03-22T13:29:06.574Z,10.28
2018-03-22T13:31:39.118Z,10.46
2018-03-22T13:34:11.694Z,10.51
2018-03-22T13:36:44.198Z,10.52
2018-03-22T13:39:16.766Z,10.51
2018-03-22T13:41:49.256Z,10.42
2018-03-22T13:44:21.766Z,10.25
2018-03-22T13:46:54.255Z,10.36
2018-03-22T13:49:26.766Z,10.22
2018-03-22T13:51:59.253Z,10.21
2018-03-22T13:54:31.750Z,10.23
2018-03-22T13:57:04.241Z,10.27
2018-03-22T13:59:36.741Z,10.16
2018-03-22T14:02:09.341Z,10.17
2018-03-22T14:04:41.880Z,10.27
2018-03-22T14:07:14.452Z,10.45
2018-03-22T14:09:46.962Z,10.58
2018-03-22T14:12:19.494Z,10.49
2018-03-22T14:14:51.966Z,10.48
2018-03-22T14:17:24.456Z,10.72
2018-03-22T14:19:56.934Z,10.70
2018-03-22T14:22:29.425Z,10.67
2018-03-22T14:25:01.907Z,10.62
2018-03-22T14:27:34.417Z,10.57
2018-03-22T14:30:06.920Z,10.60
2018-03-22T14:32:39.522Z,10.56
2018-03-22T14:35:12.046Z,10.56
2018-03-22T14:37:44.573Z,10.43
2018-03-22T14:40:17.071Z,10.45
2018-03-22T14:42:49.574Z,10.50
2018-03-22T14:45:22.046Z,10.54
2018-03-22T14:47:54.542Z,10.48
2018-03-22T14:50:27.023Z,10.44
2018-03-22T14:52:59.515Z,10.51
2018-03-22T14:55:31.998Z,10.59
2018-03-22T14:58:04.496Z,10.55
2018-03-22T15:00:36.968Z,10.53
2018-03-22T15:03:09.579Z,10.50
2018-03-22T15:05:42.110Z,10.40
2018-03-22T15:08:14.656Z,10.40
2018-03-22T15:10:47.155Z,10.41
2018-03-22T15:13:19.686Z,10.44
2018-03-22T15:15:52.159Z,10.53
2018-03-22T15:18:24.659Z,10.64
2018-03-22T15:20:57.140Z,10.66
2018-03-22T15:23:29.637Z,10.46
2018-03-22T15:26:02.124Z,10.46
2018-03-22T15:28:34.623Z,10.45
2018-03-22T15:31:07.129Z,10.35
2018-03-22T15:33:39.665Z,10.45
2018-03-22T15:36:12.247Z,10.66
2018-03-22T15:38:44.792Z,10.66
2018-03-22T15:41:17.317Z,10.48
2018-03-22T15:43:49.818Z,10.53
2018-03-22T15:46:22.299Z,10.46
2018-03-22T15:48:54.786Z,10.35
2018-03-22T15:51:27.254Z,10.34
2018-03-22T15:53:59.750Z,10.45
2018-03-22T15:56:32.222Z,10.24
2018-03-22T15:59:04.748Z,10.36
2018-03-22T16:01:37.258Z,10.35
2018-03-22T16:04:09.781Z,10.36
2018-03-22T16:06:42.317Z,10.22
2018-03-22T16:09:14.827Z,10.02
2018-03-22T16:11:47.349Z,9.71
2018-03-22T16:14:19.852Z,9.73
2018-03-22T16:16:52.322Z,9.89
2018-03-22T16:19:24.812Z,9.78
2018-03-22T16:21:57.282Z,9.74
2018-03-22T16:24:29.783Z,9.69
2018-03-22T16:27:02.259Z,9.60
2018-03-22T16:29:34.759Z,9.43
2018-03-22T16:32:07.251Z,9.43
2018-03-22T16:34:39.844Z,9.35
2018-03-22T16:37:12.347Z,9.31
2018-03-22T16:39:44.865Z,9.22
2018-03-22T16:42:17.366Z,9.22
2018-03-22T16:44:49.866Z,9.26
2018-03-22T16:47:22.355Z,9.03
2018-03-22T16:49:54.846Z,9.02
2018-03-22T16:52:27.322Z,8.93
2018-03-22T16:54:59.814Z,8.90
2018-03-22T16:57:32.289Z,8.83
2018-03-22T17:00:04.819Z,8.98
2018-03-22T17:02:37.312Z,8.85
2018-03-22T17:05:09.890Z,8.88
2018-03-22T17:07:42.431Z,8.86
2018-03-22T17:10:14.971Z,8.88
2018-03-22T17:12:47.561Z,8.97
2018-03-22T17:15:20.076Z,8.99
2018-03-22T17:17:52.572Z,8.89
2018-03-22T17:20:25.066Z,8.83
2018-03-22T17:22:57.534Z,8.82
2018-03-22T17:25:30.023Z,8.75
2018-03-22T17:28:02.490Z,8.70
2018-03-22T17:30:34.982Z,8.74
2018-03-22T17:33:07.476Z,8.67
2018-03-22T17:35:40.059Z,8.78
2018-03-22T17:38:12.592Z,8.79
2018-03-22T17:40:45.138Z,8.69
2018-03-22T17:43:17.650Z,8.56
2018-03-22T17:45:50.171Z,8.58
2018-03-22T17:48:22.687Z,8.71
2018-03-22T17:50:55.174Z,8.61
2018-03-22T17:53:27.677Z,8.64
2018-03-22T17:56:00.147Z,8.63
2018-03-22T17:58:32.630Z,8.51
2018-03-22T18:01:05.100Z,8.46
2018-03-22T18:03:37.664Z,8.48
2018-03-22T18:06:10.252Z,8.40
2018-03-22T18:08:42.809Z,8.35
2018-03-22T18:11:15.340Z,8.15
2018-03-22T18:13:47.878Z,8.28
2018-03-22T18:16:20.355Z,8.34
2018-03-22T18:18:52.851Z,8.28
2018-03-22T18:21:25.324Z,8.33
2018-03-22T18:23:57.812Z,8.26
2018-03-22T18:26:30.283Z,8.37
2018-03-22T18:29:02.775Z,8.34
2018-03-22T18:31:35.263Z,8.42
2018-03-22T18:34:07.895Z,8.44
2018-03-22T18:36:40.495Z,8.43
2018-03-22T18:39:13.164Z,8.44
2018-03-22T18:41:45.705Z,8.47
2018-03-22T18:44:18.256Z,8.50
2018-03-22T18:46:50.727Z,8.41
2018-03-22T18:49:23.236Z,8.39
2018-03-22T18:51:55.713Z,8.14
2018-03-22T18:54:28.219Z,8.06
2018-03-22T18:57:00.690Z,8.08
2018-03-22T18:59:33.181Z,8.14
2018-03-22T19:02:05.658Z,8.15
2018-03-22T19:04:38.220Z,8.21
2018-03-22T19:07:10.756Z,8.15
2018-03-22T19:09:43.434Z,8.15
2018-03-22T19:12:15.994Z,8.17
2018-03-22T19:14:48.599Z,8.03
2018-03-22T19:17:21.094Z,8.02
2018-03-22T19:19:53.582Z,8.09
2018-03-22T19:22:26.057Z,8.04
2018-03-22T19:24:58.551Z,7.97
2018-03-22T19:27:31.036Z,7.96
2018-03-22T19:30:03.529Z,7.91
2018-03-22T19:32:36.006Z,8.03
2018-03-22T19:35:08.615Z,8.04
2018-03-22T19:37:41.136Z,7.99
2018-03-22T19:40:13.665Z,7.94
2018-03-22T19:42:46.187Z,7.91
2018-03-22T19:45:18.706Z,7.86
2018-03-22T19:47:51.179Z,7.75
2018-03-22T19:50:23.694Z,7.77
2018-03-22T19:52:56.220Z,7.81
2018-03-22T19:55:28.812Z,7.87
2018-03-22T19:58:01.290Z,7.89
2018-03-22T20:00:33.790Z,7.88
2018-03-22T20:03:06.323Z,7.83
2018-03-22T20:05:38.911Z,7.74
2018-03-22T20:08:11.543Z,7.77
2018-03-22T20:10:44.492Z,7.78
2018-03-22T20:13:17.094Z,7.72
2018-03-22T20:15:49.631Z,7.74
2018-03-22T20:18:22.116Z,7.78
2018-03-22T20:20:54.751Z,7.80
2018-03-22T20:23:27.231Z,7.73
2018-03-22T20:25:59.743Z,7.64
2018-03-22T20:28:32.295Z,7.61
2018-03-22T20:31:04.839Z,7.58
2018-03-22T20:33:37.365Z,7.49
2018-03-22T20:36:09.976Z,7.49
2018-03-22T20:38:42.520Z,7.38
2018-03-22T20:41:15.174Z,7.38
2018-03-22T20:43:47.735Z,7.42
2018-03-22T20:46:20.246Z,7.39
2018-03-22T20:48:52.721Z,7.42
2018-03-22T20:51:25.223Z,7.42
2018-03-22T20:53:57.691Z,7.30
2018-03-22T20:56:30.186Z,7.28
2018-03-22T20:59:02.658Z,7.56
2018-03-22T21:01:35.146Z,7.62
2018-03-22T21:04:07.641Z,7.68
2018-03-22T21:06:40.224Z,7.77
2018-03-22T21:09:12.744Z,7.65
2018-03-22T21:11:45.286Z,7.52
2018-03-22T21:14:17.804Z,7.67
2018-03-22T21:16:50.315Z,7.56
2018-03-22T21:19:22.782Z,7.57
2018-03-22T21:21:55.276Z,7.53
2018-03-22T21:24:27.753Z,7.55
2018-03-22T21:27:00.246Z,7.58
2018-03-22T21:29:32.718Z,7.56
2018-03-22T21:32:05.214Z,7.60
2018-03-22T21:34:37.777Z,7.61
2018-03-22T21:37:10.417Z,7.64
2018-03-22T21:39:43.062Z,7.59
2018-03-22T21:42:15.762Z,7.61
2018-03-22T21:44:48.347Z,7.67
2018-03-22T21:47:32.435Z,7.71
2018-03-22T21:50:04.943Z,7.70
2018-03-22T21:52:43.455Z,7.66
2018-03-22T21:55:15.996Z,7.65
2018-03-22T21:57:48.535Z,7.65
2018-03-22T22:00:21.031Z,7.68
2018-03-22T22:02:53.505Z,7.57
2018-03-22T22:05:26.015Z,7.43
2018-03-22T22:07:58.541Z,7.44
2018-03-22T22:10:31.030Z,7.36
2018-03-22T22:13:03.510Z,7.48
2018-03-22T22:15:36.027Z,7.47
2018-03-22T22:18:09.533Z,7.44
2018-03-22T22:20:42.253Z,7.34
2018-03-22T22:23:14.763Z,7.33
2018-03-22T22:25:47.282Z,7.23
2018-03-22T22:28:19.832Z,7.22
2018-03-22T22:30:52.330Z,7.22
2018-03-22T22:33:24.804Z,7.26
2018-03-22T22:35:57.296Z,7.18
2018-03-22T22:38:29.774Z,7.21
2018-03-22T22:41:02.284Z,7.25
2018-03-22T22:43:34.754Z,7.22
2018-03-22T22:46:07.270Z,7.14
2018-03-22T22:48:39.913Z,7.08
2018-03-22T22:51:12.657Z,6.98
2018-03-22T22:53:45.207Z,6.90
2018-03-22T22:56:17.779Z,6.93
2018-03-22T22:58:50.299Z,7.00
2018-03-22T23:01:22.798Z,6.91
2018-03-22T23:03:55.272Z,6.82
2018-03-22T23:06:27.782Z,6.81
2018-03-22T23:09:00.258Z,6.80
2018-03-22T23:11:32.755Z,6.71
2018-03-22T23:14:05.223Z,6.71
2018-03-22T23:16:38.007Z,6.70
2018-03-22T23:19:10.681Z,6.74
2018-03-22T23:21:43.304Z,6.74
2018-03-22T23:24:15.864Z,6.73
2018-03-22T23:26:48.423Z,6.83
2018-03-22T23:29:20.894Z,6.86
2018-03-22T23:31:53.424Z,6.71
2018-03-22T23:34:25.895Z,6.75
2018-03-22T23:36:58.395Z,6.88
2018-03-22T23:39:30.865Z,6.96
2018-03-22T23:42:03.354Z,6.98
2018-03-22T23:44:35.818Z,7.03
2018-03-22T23:47:08.376Z,6.99
2018-03-22T23:49:40.990Z,6.94
2018-03-22T23:52:13.538Z,6.97
2018-03-22T23:54:46.146Z,6.97
2018-03-22T23:57:18.682Z,6.99
2018-03-22T23:59:51.178Z,7.08
